Airfield :
LOGIN :

Register | Disclaimer

   EN    FR    IT 

 










Legend :    VFR   Marginal VFR   IFR   Intensive IFR   Very Intensive IFR
Visi :
Ceiling :
>= 8 km
>= 3000ft
5 to 8 km
1000 to 3000 ft
1500m to 5 km
500 to 1000 ft
800 to 1500m
200 to 500 ft
< 800m
< 200 ft
Symbols :   Thunderstorms  Fog  Heavy snow  Heavy precipitations  Wind > 20 kt
SIGMETs :     Misc.  Thunderstorms  Icing  Turbulence  Mountain Waves  Volcanic Ashes







- Airport Elevation : 461 ft
- IATA code : WIE


ETOU - Wiesbaden Army

CURRENT METAR :
  • 190956Z AUTO 29004KT 9999 BKN150 BKN200 21/13 A2965 RMK AO2 SLP040 T02050130 $

EXPIRED METARs :
  • 190856Z AUTO 32003KT 9999 FEW065 FEW095 SCT240 18/13 A2967 RMK AO2 SLP047 60000 T01790132 55003 $
  • 190756Z AUTO 22003KT 9999 FEW010 SCT130 BKN160 16/14 A2967 RMK AO2 SLP047 T01630143 $

TAF TAF ETOU
Valid from the 18 at 11:00 until the 19 at 17:00 UTC


181126Z 1811/1917 VRB06KT 9999 SCT040 QNH2960INS
TEMPO 1812/1818 8000 -SHRA VCTS BKN020CB
BECMG 1912/1913 03015G25KT 8000 -TSRA OVC040CB QNH2958INS TX22/1815Z TN09/1904Z LAST NO AMDS AFT 1811 NEXT 1911
No reported NOTAMs for that airfield.



MET'MAP, your aeronautical weather chart ! - Copyright ORBIFLY December 2007 - Disclaimer

ORBIFLY MET'MAP TEAM :

Programming & Development : Alexandra Zaïnal
Concept & Development : Baudouin d'Aumeries
Co-Development & Prog : Marc-Olivier Méhu
Technical & hardware support : Manuel Goepfert

Contact : metmap@orbifly.com




SOURCES & CREDITS :

   NOAA